sensor_id;sensor_type;location;lat;lon;timestamp;P1;durP1;ratioP1;P2;durP2;ratioP2
13435;SDS011;6790;49.520;8.504;2023-04-06T00:01:51;6.57;;;4.40;;
13435;SDS011;6790;49.520;8.504;2023-04-06T00:04:16;7.03;;;4.30;;
13435;SDS011;6790;49.520;8.504;2023-04-06T00:06:42;9.17;;;5.40;;
13435;SDS011;6790;49.520;8.504;2023-04-06T00:09:08;15.33;;;5.50;;
13435;SDS011;6790;49.520;8.504;2023-04-06T00:11:34;6.40;;;4.70;;
13435;SDS011;6790;49.520;8.504;2023-04-06T00:14:00;8.00;;;5.37;;
13435;SDS011;6790;49.520;8.504;2023-04-06T00:16:25;8.33;;;4.97;;
13435;SDS011;6790;49.520;8.504;2023-04-06T00:18:51;7.70;;;4.57;;
13435;SDS011;6790;49.520;8.504;2023-04-06T00:21:17;11.17;;;5.83;;
13435;SDS011;6790;49.520;8.504;2023-04-06T00:23:43;8.30;;;5.20;;
13435;SDS011;6790;49.520;8.504;2023-04-06T00:26:08;8.03;;;5.07;;
13435;SDS011;6790;49.520;8.504;2023-04-06T00:28:36;5.73;;;4.77;;
13435;SDS011;6790;49.520;8.504;2023-04-06T00:31:02;8.53;;;4.93;;
13435;SDS011;6790;49.520;8.504;2023-04-06T00:33:28;5.80;;;4.63;;
13435;SDS011;6790;49.520;8.504;2023-04-06T00:35:54;8.70;;;4.70;;
13435;SDS011;6790;49.520;8.504;2023-04-06T00:38:21;6.23;;;4.33;;
13435;SDS011;6790;49.520;8.504;2023-04-06T00:40:47;8.63;;;4.67;;
13435;SDS011;6790;49.520;8.504;2023-04-06T00:43:13;8.53;;;4.63;;
13435;SDS011;6790;49.520;8.504;2023-04-06T00:45:40;6.43;;;4.20;;
13435;SDS011;6790;49.520;8.504;2023-04-06T00:48:06;12.77;;;4.60;;
13435;SDS011;6790;49.520;8.504;2023-04-06T00:50:33;8.03;;;4.93;;
13435;SDS011;6790;49.520;8.504;2023-04-06T00:52:59;7.00;;;4.73;;
13435;SDS011;6790;49.520;8.504;2023-04-06T00:55:26;8.70;;;5.20;;
13435;SDS011;6790;49.520;8.504;2023-04-06T00:57:52;6.03;;;4.47;;
13435;SDS011;6790;49.520;8.504;2023-04-06T01:00:19;7.20;;;4.23;;
13435;SDS011;6790;49.520;8.504;2023-04-06T01:02:45;7.07;;;5.10;;
13435;SDS011;6790;49.520;8.504;2023-04-06T01:05:12;6.83;;;4.50;;
13435;SDS011;6790;49.520;8.504;2023-04-06T01:07:38;6.37;;;4.50;;
13435;SDS011;6790;49.520;8.504;2023-04-06T01:10:04;7.20;;;4.70;;
13435;SDS011;6790;49.520;8.504;2023-04-06T01:12:31;9.23;;;5.40;;
13435;SDS011;6790;49.520;8.504;2023-04-06T01:14:57;5.77;;;4.57;;
13435;SDS011;6790;49.520;8.504;2023-04-06T01:17:22;10.40;;;4.97;;
13435;SDS011;6790;49.520;8.504;2023-04-06T01:19:48;6.07;;;4.50;;
13435;SDS011;6790;49.520;8.504;2023-04-06T01:22:17;6.47;;;4.47;;
13435;SDS011;6790;49.520;8.504;2023-04-06T01:24:43;5.93;;;4.60;;
13435;SDS011;6790;49.520;8.504;2023-04-06T01:27:10;6.97;;;4.50;;
13435;SDS011;6790;49.520;8.504;2023-04-06T01:29:36;6.33;;;4.33;;
13435;SDS011;6790;49.520;8.504;2023-04-06T01:32:02;4.73;;;4.03;;
13435;SDS011;6790;49.520;8.504;2023-04-06T01:34:28;5.83;;;4.60;;
13435;SDS011;6790;49.520;8.504;2023-04-06T01:36:54;4.47;;;3.87;;
13435;SDS011;6790;49.520;8.504;2023-04-06T01:39:20;4.37;;;3.10;;
13435;SDS011;6790;49.520;8.504;2023-04-06T01:41:45;6.17;;;3.80;;
13435;SDS011;6790;49.520;8.504;2023-04-06T01:44:12;6.40;;;4.30;;
13435;SDS011;6790;49.520;8.504;2023-04-06T01:46:41;5.43;;;3.70;;
13435;SDS011;6790;49.520;8.504;2023-04-06T01:49:07;5.73;;;3.83;;
13435;SDS011;6790;49.520;8.504;2023-04-06T01:51:32;4.70;;;3.40;;
13435;SDS011;6790;49.520;8.504;2023-04-06T01:53:58;5.27;;;3.73;;
13435;SDS011;6790;49.520;8.504;2023-04-06T01:56:24;9.83;;;4.37;;
13435;SDS011;6790;49.520;8.504;2023-04-06T01:58:50;4.13;;;3.57;;
13435;SDS011;6790;49.520;8.504;2023-04-06T02:01:16;8.07;;;4.30;;
13435;SDS011;6790;49.520;8.504;2023-04-06T02:03:42;6.30;;;4.30;;
13435;SDS011;6790;49.520;8.504;2023-04-06T02:06:07;6.67;;;4.73;;
13435;SDS011;6790;49.520;8.504;2023-04-06T02:08:33;9.40;;;4.80;;
13435;SDS011;6790;49.520;8.504;2023-04-06T02:10:59;5.03;;;3.83;;
13435;SDS011;6790;49.520;8.504;2023-04-06T02:13:25;6.60;;;4.90;;
13435;SDS011;6790;49.520;8.504;2023-04-06T02:15:50;5.63;;;4.23;;
13435;SDS011;6790;49.520;8.504;2023-04-06T02:18:16;6.63;;;4.07;;
13435;SDS011;6790;49.520;8.504;2023-04-06T02:20:43;4.87;;;3.97;;
13435;SDS011;6790;49.520;8.504;2023-04-06T02:23:09;6.03;;;4.20;;
13435;SDS011;6790;49.520;8.504;2023-04-06T02:25:36;11.27;;;5.10;;
13435;SDS011;6790;49.520;8.504;2023-04-06T02:28:02;6.67;;;4.37;;
13435;SDS011;6790;49.520;8.504;2023-04-06T02:30:27;10.27;;;4.13;;
13435;SDS011;6790;49.520;8.504;2023-04-06T02:32:54;10.60;;;5.07;;
13435;SDS011;6790;49.520;8.504;2023-04-06T02:35:20;7.03;;;5.23;;
13435;SDS011;6790;49.520;8.504;2023-04-06T02:37:46;6.10;;;4.83;;
13435;SDS011;6790;49.520;8.504;2023-04-06T02:40:13;7.97;;;4.50;;
13435;SDS011;6790;49.520;8.504;2023-04-06T02:42:39;5.17;;;4.07;;
13435;SDS011;6790;49.520;8.504;2023-04-06T02:45:05;5.70;;;4.30;;
13435;SDS011;6790;49.520;8.504;2023-04-06T02:47:32;12.80;;;4.77;;
13435;SDS011;6790;49.520;8.504;2023-04-06T02:49:58;7.67;;;4.83;;
13435;SDS011;6790;49.520;8.504;2023-04-06T02:52:24;4.23;;;3.10;;
13435;SDS011;6790;49.520;8.504;2023-04-06T02:54:50;7.10;;;4.57;;
13435;SDS011;6790;49.520;8.504;2023-04-06T02:57:16;4.57;;;3.60;;
13435;SDS011;6790;49.520;8.504;2023-04-06T02:59:42;7.80;;;4.57;;
13435;SDS011;6790;49.520;8.504;2023-04-06T03:02:07;6.57;;;4.30;;
13435;SDS011;6790;49.520;8.504;2023-04-06T03:04:33;6.73;;;4.90;;
13435;SDS011;6790;49.520;8.504;2023-04-06T03:06:59;6.67;;;4.43;;
13435;SDS011;6790;49.520;8.504;2023-04-06T03:09:25;10.80;;;4.60;;
13435;SDS011;6790;49.520;8.504;2023-04-06T03:11:52;9.90;;;5.70;;
13435;SDS011;6790;49.520;8.504;2023-04-06T03:14:18;6.07;;;4.70;;
13435;SDS011;6790;49.520;8.504;2023-04-06T03:16:47;8.27;;;5.30;;
13435;SDS011;6790;49.520;8.504;2023-04-06T03:19:13;6.90;;;4.30;;
13435;SDS011;6790;49.520;8.504;2023-04-06T03:21:40;6.73;;;5.17;;
13435;SDS011;6790;49.520;8.504;2023-04-06T03:24:06;7.27;;;4.83;;
13435;SDS011;6790;49.520;8.504;2023-04-06T03:26:32;7.27;;;4.70;;
13435;SDS011;6790;49.520;8.504;2023-04-06T03:28:58;7.13;;;4.70;;
13435;SDS011;6790;49.520;8.504;2023-04-06T03:31:24;8.23;;;4.90;;
13435;SDS011;6790;49.520;8.504;2023-04-06T03:33:51;9.03;;;5.23;;
13435;SDS011;6790;49.520;8.504;2023-04-06T03:36:17;7.47;;;4.83;;
13435;SDS011;6790;49.520;8.504;2023-04-06T03:38:43;9.80;;;5.07;;
13435;SDS011;6790;49.520;8.504;2023-04-06T03:41:08;9.17;;;5.70;;
13435;SDS011;6790;49.520;8.504;2023-04-06T03:43:34;6.90;;;4.47;;
13435;SDS011;6790;49.520;8.504;2023-04-06T03:46:00;5.43;;;4.00;;
13435;SDS011;6790;49.520;8.504;2023-04-06T03:48:26;8.23;;;4.13;;
13435;SDS011;6790;49.520;8.504;2023-04-06T03:50:52;7.63;;;4.17;;
13435;SDS011;6790;49.520;8.504;2023-04-06T03:53:17;7.70;;;4.73;;
13435;SDS011;6790;49.520;8.504;2023-04-06T03:55:43;6.87;;;4.40;;
13435;SDS011;6790;49.520;8.504;2023-04-06T03:58:09;9.60;;;5.87;;
13435;SDS011;6790;49.520;8.504;2023-04-06T04:00:35;6.20;;;4.53;;
13435;SDS011;6790;49.520;8.504;2023-04-06T04:03:01;7.07;;;4.30;;
13435;SDS011;6790;49.520;8.504;2023-04-06T04:05:27;7.57;;;4.97;;
13435;SDS011;6790;49.520;8.504;2023-04-06T04:07:53;7.80;;;4.03;;
13435;SDS011;6790;49.520;8.504;2023-04-06T04:10:20;10.13;;;5.27;;
13435;SDS011;6790;49.520;8.504;2023-04-06T04:12:45;11.90;;;4.33;;
13435;SDS011;6790;49.520;8.504;2023-04-06T04:15:11;5.83;;;4.20;;
13435;SDS011;6790;49.520;8.504;2023-04-06T04:17:37;4.77;;;4.30;;
13435;SDS011;6790;49.520;8.504;2023-04-06T04:20:03;8.90;;;5.60;;
13435;SDS011;6790;49.520;8.504;2023-04-06T04:22:29;9.57;;;5.20;;
13435;SDS011;6790;49.520;8.504;2023-04-06T04:24:55;10.97;;;5.60;;
13435;SDS011;6790;49.520;8.504;2023-04-06T04:27:21;6.20;;;4.43;;
13435;SDS011;6790;49.520;8.504;2023-04-06T04:29:47;6.13;;;4.47;;
13435;SDS011;6790;49.520;8.504;2023-04-06T04:32:13;7.00;;;4.47;;
13435;SDS011;6790;49.520;8.504;2023-04-06T04:34:38;8.60;;;5.70;;
13435;SDS011;6790;49.520;8.504;2023-04-06T04:37:07;7.03;;;4.57;;
13435;SDS011;6790;49.520;8.504;2023-04-06T04:39:33;7.43;;;5.03;;
13435;SDS011;6790;49.520;8.504;2023-04-06T04:41:58;5.90;;;4.77;;
13435;SDS011;6790;49.520;8.504;2023-04-06T04:44:24;10.93;;;6.27;;
13435;SDS011;6790;49.520;8.504;2023-04-06T04:46:50;9.63;;;5.57;;
13435;SDS011;6790;49.520;8.504;2023-04-06T04:49:16;9.17;;;5.67;;
13435;SDS011;6790;49.520;8.504;2023-04-06T04:51:42;10.10;;;4.80;;
13435;SDS011;6790;49.520;8.504;2023-04-06T04:54:09;11.77;;;6.07;;
13435;SDS011;6790;49.520;8.504;2023-04-06T04:56:34;5.93;;;4.13;;
13435;SDS011;6790;49.520;8.504;2023-04-06T04:59:00;9.40;;;5.57;;
13435;SDS011;6790;49.520;8.504;2023-04-06T05:01:26;8.93;;;5.60;;
13435;SDS011;6790;49.520;8.504;2023-04-06T05:03:52;6.77;;;4.87;;
13435;SDS011;6790;49.520;8.504;2023-04-06T05:06:17;10.13;;;5.43;;
13435;SDS011;6790;49.520;8.504;2023-04-06T05:08:44;12.00;;;6.33;;
13435;SDS011;6790;49.520;8.504;2023-04-06T05:11:10;6.87;;;4.30;;
13435;SDS011;6790;49.520;8.504;2023-04-06T05:13:36;9.50;;;6.63;;
13435;SDS011;6790;49.520;8.504;2023-04-06T05:16:02;7.70;;;5.00;;
13435;SDS011;6790;49.520;8.504;2023-04-06T05:18:27;17.47;;;5.87;;
13435;SDS011;6790;49.520;8.504;2023-04-06T05:20:53;11.50;;;4.77;;
13435;SDS011;6790;49.520;8.504;2023-04-06T05:23:19;10.07;;;6.03;;
13435;SDS011;6790;49.520;8.504;2023-04-06T05:25:45;7.03;;;5.53;;
13435;SDS011;6790;49.520;8.504;2023-04-06T05:28:11;8.80;;;5.37;;
13435;SDS011;6790;49.520;8.504;2023-04-06T05:30:39;8.20;;;5.03;;
13435;SDS011;6790;49.520;8.504;2023-04-06T05:33:05;15.57;;;7.47;;
13435;SDS011;6790;49.520;8.504;2023-04-06T05:35:31;7.47;;;5.70;;
13435;SDS011;6790;49.520;8.504;2023-04-06T05:37:56;11.40;;;6.53;;
13435;SDS011;6790;49.520;8.504;2023-04-06T05:40:22;17.67;;;7.53;;
13435;SDS011;6790;49.520;8.504;2023-04-06T05:42:48;12.73;;;7.10;;
13435;SDS011;6790;49.520;8.504;2023-04-06T05:45:14;11.93;;;8.00;;
13435;SDS011;6790;49.520;8.504;2023-04-06T05:47:42;10.57;;;6.63;;
13435;SDS011;6790;49.520;8.504;2023-04-06T05:50:09;11.87;;;6.60;;
13435;SDS011;6790;49.520;8.504;2023-04-06T05:52:36;15.33;;;8.10;;
13435;SDS011;6790;49.520;8.504;2023-04-06T05:55:02;20.30;;;6.70;;
13435;SDS011;6790;49.520;8.504;2023-04-06T05:57:29;16.73;;;8.13;;
13435;SDS011;6790;49.520;8.504;2023-04-06T05:59:54;14.97;;;8.37;;
13435;SDS011;6790;49.520;8.504;2023-04-06T06:02:21;9.73;;;6.67;;
13435;SDS011;6790;49.520;8.504;2023-04-06T06:04:47;17.87;;;7.97;;
13435;SDS011;6790;49.520;8.504;2023-04-06T06:07:14;14.27;;;7.87;;
13435;SDS011;6790;49.520;8.504;2023-04-06T06:09:40;10.97;;;7.23;;
13435;SDS011;6790;49.520;8.504;2023-04-06T06:12:05;13.90;;;6.67;;
13435;SDS011;6790;49.520;8.504;2023-04-06T06:14:31;14.80;;;8.30;;
13435;SDS011;6790;49.520;8.504;2023-04-06T06:16:57;13.97;;;8.93;;
13435;SDS011;6790;49.520;8.504;2023-04-06T06:19:23;9.17;;;6.53;;
13435;SDS011;6790;49.520;8.504;2023-04-06T06:21:49;14.53;;;7.80;;
13435;SDS011;6790;49.520;8.504;2023-04-06T06:24:14;11.70;;;7.23;;
13435;SDS011;6790;49.520;8.504;2023-04-06T06:26:40;12.00;;;7.47;;
13435;SDS011;6790;49.520;8.504;2023-04-06T06:29:06;7.97;;;6.07;;
13435;SDS011;6790;49.520;8.504;2023-04-06T06:31:32;11.67;;;7.00;;
13435;SDS011;6790;49.520;8.504;2023-04-06T06:33:58;10.47;;;6.83;;
13435;SDS011;6790;49.520;8.504;2023-04-06T06:36:24;10.77;;;7.27;;
13435;SDS011;6790;49.520;8.504;2023-04-06T06:38:50;11.80;;;6.63;;
13435;SDS011;6790;49.520;8.504;2023-04-06T06:41:16;11.00;;;7.57;;
13435;SDS011;6790;49.520;8.504;2023-04-06T06:43:42;12.40;;;6.90;;
13435;SDS011;6790;49.520;8.504;2023-04-06T06:46:08;12.17;;;7.80;;
13435;SDS011;6790;49.520;8.504;2023-04-06T06:48:34;14.50;;;7.73;;
13435;SDS011;6790;49.520;8.504;2023-04-06T06:51:00;12.37;;;7.10;;
13435;SDS011;6790;49.520;8.504;2023-04-06T06:53:26;10.40;;;6.93;;
13435;SDS011;6790;49.520;8.504;2023-04-06T06:55:53;15.43;;;7.90;;
13435;SDS011;6790;49.520;8.504;2023-04-06T06:58:19;13.83;;;6.67;;
13435;SDS011;6790;49.520;8.504;2023-04-06T07:00:45;17.37;;;7.70;;
13435;SDS011;6790;49.520;8.504;2023-04-06T07:03:11;10.07;;;7.33;;
13435;SDS011;6790;49.520;8.504;2023-04-06T07:05:37;14.67;;;6.80;;
13435;SDS011;6790;49.520;8.504;2023-04-06T07:08:03;10.27;;;6.83;;
13435;SDS011;6790;49.520;8.504;2023-04-06T07:10:29;16.60;;;7.10;;
13435;SDS011;6790;49.520;8.504;2023-04-06T07:12:55;13.00;;;6.63;;
13435;SDS011;6790;49.520;8.504;2023-04-06T07:15:21;8.10;;;6.03;;
13435;SDS011;6790;49.520;8.504;2023-04-06T07:17:47;9.93;;;6.53;;
13435;SDS011;6790;49.520;8.504;2023-04-06T07:20:13;11.60;;;6.67;;
13435;SDS011;6790;49.520;8.504;2023-04-06T07:22:40;10.70;;;6.40;;
13435;SDS011;6790;49.520;8.504;2023-04-06T07:25:07;7.93;;;6.27;;
13435;SDS011;6790;49.520;8.504;2023-04-06T07:27:34;13.03;;;7.17;;
13435;SDS011;6790;49.520;8.504;2023-04-06T07:29:59;10.63;;;6.70;;
13435;SDS011;6790;49.520;8.504;2023-04-06T07:32:25;9.17;;;6.27;;
13435;SDS011;6790;49.520;8.504;2023-04-06T07:34:51;9.30;;;6.17;;
13435;SDS011;6790;49.520;8.504;2023-04-06T07:37:17;8.77;;;6.57;;
13435;SDS011;6790;49.520;8.504;2023-04-06T07:39:42;10.13;;;5.97;;
13435;SDS011;6790;49.520;8.504;2023-04-06T07:42:08;11.53;;;6.83;;
13435;SDS011;6790;49.520;8.504;2023-04-06T07:44:34;18.00;;;7.23;;
13435;SDS011;6790;49.520;8.504;2023-04-06T07:46:59;15.87;;;8.70;;
13435;SDS011;6790;49.520;8.504;2023-04-06T07:49:25;11.87;;;7.10;;
13435;SDS011;6790;49.520;8.504;2023-04-06T07:51:51;10.37;;;7.03;;
13435;SDS011;6790;49.520;8.504;2023-04-06T07:54:17;13.60;;;7.53;;
13435;SDS011;6790;49.520;8.504;2023-04-06T07:56:43;12.83;;;6.37;;
13435;SDS011;6790;49.520;8.504;2023-04-06T07:59:08;11.60;;;6.40;;
13435;SDS011;6790;49.520;8.504;2023-04-06T08:01:36;8.33;;;6.30;;
13435;SDS011;6790;49.520;8.504;2023-04-06T08:04:02;11.20;;;6.90;;
13435;SDS011;6790;49.520;8.504;2023-04-06T08:06:28;10.40;;;6.97;;
13435;SDS011;6790;49.520;8.504;2023-04-06T08:08:53;9.80;;;6.30;;
13435;SDS011;6790;49.520;8.504;2023-04-06T08:11:19;13.10;;;7.57;;
13435;SDS011;6790;49.520;8.504;2023-04-06T08:13:45;10.23;;;6.73;;
13435;SDS011;6790;49.520;8.504;2023-04-06T08:16:11;10.03;;;6.90;;
13435;SDS011;6790;49.520;8.504;2023-04-06T08:18:37;8.97;;;6.70;;
13435;SDS011;6790;49.520;8.504;2023-04-06T08:21:03;13.97;;;7.20;;
13435;SDS011;6790;49.520;8.504;2023-04-06T08:23:28;9.27;;;6.83;;
13435;SDS011;6790;49.520;8.504;2023-04-06T08:25:54;10.93;;;6.73;;
13435;SDS011;6790;49.520;8.504;2023-04-06T08:28:20;11.50;;;7.43;;
13435;SDS011;6790;49.520;8.504;2023-04-06T08:30:46;9.47;;;6.50;;
13435;SDS011;6790;49.520;8.504;2023-04-06T08:33:12;7.43;;;6.47;;
13435;SDS011;6790;49.520;8.504;2023-04-06T08:35:38;13.83;;;7.33;;
13435;SDS011;6790;49.520;8.504;2023-04-06T08:38:04;9.70;;;6.73;;
13435;SDS011;6790;49.520;8.504;2023-04-06T08:40:35;12.77;;;6.70;;
13435;SDS011;6790;49.520;8.504;2023-04-06T08:43:09;8.47;;;5.97;;
13435;SDS011;6790;49.520;8.504;2023-04-06T08:45:40;10.20;;;6.93;;
13435;SDS011;6790;49.520;8.504;2023-04-06T08:48:07;7.80;;;6.47;;
13435;SDS011;6790;49.520;8.504;2023-04-06T08:50:34;14.00;;;6.90;;
13435;SDS011;6790;49.520;8.504;2023-04-06T08:53:00;8.83;;;6.50;;
13435;SDS011;6790;49.520;8.504;2023-04-06T08:55:26;9.90;;;6.90;;
13435;SDS011;6790;49.520;8.504;2023-04-06T08:57:52;12.23;;;6.37;;
13435;SDS011;6790;49.520;8.504;2023-04-06T09:00:20;10.00;;;6.57;;
13435;SDS011;6790;49.520;8.504;2023-04-06T09:02:46;9.50;;;6.63;;
13435;SDS011;6790;49.520;8.504;2023-04-06T09:05:14;8.83;;;6.23;;
13435;SDS011;6790;49.520;8.504;2023-04-06T09:07:40;10.83;;;6.33;;
13435;SDS011;6790;49.520;8.504;2023-04-06T09:10:07;9.97;;;6.50;;
13435;SDS011;6790;49.520;8.504;2023-04-06T09:12:34;8.83;;;6.67;;
13435;SDS011;6790;49.520;8.504;2023-04-06T09:15:00;9.67;;;6.60;;
13435;SDS011;6790;49.520;8.504;2023-04-06T09:17:31;7.90;;;6.10;;
13435;SDS011;6790;49.520;8.504;2023-04-06T09:20:02;8.03;;;6.30;;
13435;SDS011;6790;49.520;8.504;2023-04-06T09:22:36;12.30;;;6.13;;
13435;SDS011;6790;49.520;8.504;2023-04-06T09:25:03;15.43;;;6.30;;
13435;SDS011;6790;49.520;8.504;2023-04-06T09:27:30;9.40;;;6.20;;
13435;SDS011;6790;49.520;8.504;2023-04-06T09:30:08;11.37;;;6.77;;
13435;SDS011;6790;49.520;8.504;2023-04-06T09:35:12;9.57;;;6.10;;
13435;SDS011;6790;49.520;8.504;2023-04-06T09:37:38;10.77;;;6.00;;
13435;SDS011;6790;49.520;8.504;2023-04-06T09:40:04;9.57;;;6.03;;
13435;SDS011;6790;49.520;8.504;2023-04-06T09:42:32;9.77;;;5.93;;
13435;SDS011;6790;49.520;8.504;2023-04-06T09:44:59;7.73;;;5.93;;
13435;SDS011;6790;49.520;8.504;2023-04-06T09:47:26;10.47;;;6.00;;
13435;SDS011;6790;49.520;8.504;2023-04-06T09:49:55;8.03;;;5.93;;
13435;SDS011;6790;49.520;8.504;2023-04-06T09:52:27;9.77;;;5.97;;
13435;SDS011;6790;49.520;8.504;2023-04-06T09:55:06;8.40;;;5.90;;
13435;SDS011;6790;49.520;8.504;2023-04-06T09:57:41;9.77;;;5.87;;
13435;SDS011;6790;49.520;8.504;2023-04-06T10:00:17;8.93;;;5.80;;
13435;SDS011;6790;49.520;8.504;2023-04-06T10:02:49;8.40;;;5.57;;
13435;SDS011;6790;49.520;8.504;2023-04-06T10:05:38;7.93;;;6.37;;
13435;SDS011;6790;49.520;8.504;2023-04-06T10:08:17;7.80;;;6.03;;
13435;SDS011;6790;49.520;8.504;2023-04-06T10:10:44;9.53;;;5.23;;
13435;SDS011;6790;49.520;8.504;2023-04-06T10:13:11;8.53;;;5.90;;
13435;SDS011;6790;49.520;8.504;2023-04-06T10:15:37;9.33;;;5.93;;
13435;SDS011;6790;49.520;8.504;2023-04-06T10:18:05;7.50;;;5.90;;
13435;SDS011;6790;49.520;8.504;2023-04-06T10:23:08;7.30;;;5.53;;
13435;SDS011;6790;49.520;8.504;2023-04-06T10:25:51;8.77;;;5.47;;
13435;SDS011;6790;49.520;8.504;2023-04-06T10:28:25;9.00;;;5.80;;
13435;SDS011;6790;49.520;8.504;2023-04-06T10:30:57;6.50;;;5.27;;
13435;SDS011;6790;49.520;8.504;2023-04-06T10:33:29;7.70;;;5.83;;
13435;SDS011;6790;49.520;8.504;2023-04-06T10:35:55;6.93;;;5.43;;
13435;SDS011;6790;49.520;8.504;2023-04-06T10:38:32;6.57;;;4.87;;
13435;SDS011;6790;49.520;8.504;2023-04-06T10:41:04;7.20;;;5.60;;
13435;SDS011;6790;49.520;8.504;2023-04-06T10:43:35;8.40;;;5.23;;
13435;SDS011;6790;49.520;8.504;2023-04-06T10:46:02;7.80;;;5.00;;
13435;SDS011;6790;49.520;8.504;2023-04-06T10:48:41;8.43;;;5.97;;
13435;SDS011;6790;49.520;8.504;2023-04-06T10:53:38;7.57;;;5.00;;
13435;SDS011;6790;49.520;8.504;2023-04-06T10:56:14;7.43;;;5.00;;
13435;SDS011;6790;49.520;8.504;2023-04-06T10:58:45;7.07;;;4.93;;
13435;SDS011;6790;49.520;8.504;2023-04-06T11:01:12;9.07;;;4.73;;
13435;SDS011;6790;49.520;8.504;2023-04-06T11:03:46;6.47;;;4.60;;
13435;SDS011;6790;49.520;8.504;2023-04-06T11:06:23;7.87;;;5.53;;
13435;SDS011;6790;49.520;8.504;2023-04-06T11:08:52;8.50;;;6.40;;
13435;SDS011;6790;49.520;8.504;2023-04-06T11:11:19;7.80;;;4.97;;
13435;SDS011;6790;49.520;8.504;2023-04-06T11:13:51;5.93;;;4.63;;
13435;SDS011;6790;49.520;8.504;2023-04-06T11:16:23;6.40;;;4.73;;
13435;SDS011;6790;49.520;8.504;2023-04-06T11:18:56;9.10;;;4.97;;
13435;SDS011;6790;49.520;8.504;2023-04-06T11:21:40;5.43;;;4.50;;
13435;SDS011;6790;49.520;8.504;2023-04-06T11:24:14;6.90;;;4.60;;
13435;SDS011;6790;49.520;8.504;2023-04-06T11:26:51;7.30;;;5.07;;
13435;SDS011;6790;49.520;8.504;2023-04-06T11:29:28;6.10;;;4.67;;
13435;SDS011;6790;49.520;8.504;2023-04-06T11:32:03;8.80;;;5.37;;
13435;SDS011;6790;49.520;8.504;2023-04-06T11:34:40;5.77;;;5.00;;
13435;SDS011;6790;49.520;8.504;2023-04-06T11:37:09;9.63;;;5.30;;
13435;SDS011;6790;49.520;8.504;2023-04-06T11:39:38;7.00;;;5.23;;
13435;SDS011;6790;49.520;8.504;2023-04-06T11:42:11;9.17;;;5.60;;
13435;SDS011;6790;49.520;8.504;2023-04-06T11:44:42;7.63;;;5.33;;
13435;SDS011;6790;49.520;8.504;2023-04-06T11:47:11;9.07;;;5.13;;
13435;SDS011;6790;49.520;8.504;2023-04-06T11:49:38;8.00;;;5.20;;
13435;SDS011;6790;49.520;8.504;2023-04-06T11:52:21;8.57;;;5.40;;
13435;SDS011;6790;49.520;8.504;2023-04-06T11:54:52;7.57;;;5.87;;
13435;SDS011;6790;49.520;8.504;2023-04-06T11:57:21;6.77;;;5.33;;
13435;SDS011;6790;49.520;8.504;2023-04-06T11:59:50;7.57;;;5.73;;
13435;SDS011;6790;49.520;8.504;2023-04-06T12:02:20;7.30;;;5.77;;
13435;SDS011;6790;49.520;8.504;2023-04-06T12:04:46;7.07;;;5.20;;
13435;SDS011;6790;49.520;8.504;2023-04-06T12:07:12;7.43;;;5.30;;
13435;SDS011;6790;49.520;8.504;2023-04-06T12:09:37;8.03;;;5.57;;
13435;SDS011;6790;49.520;8.504;2023-04-06T12:12:03;7.93;;;5.33;;
13435;SDS011;6790;49.520;8.504;2023-04-06T12:14:32;6.37;;;5.00;;
13435;SDS011;6790;49.520;8.504;2023-04-06T12:16:58;9.33;;;5.60;;
13435;SDS011;6790;49.520;8.504;2023-04-06T12:19:27;7.33;;;5.87;;
13435;SDS011;6790;49.520;8.504;2023-04-06T12:21:56;7.50;;;5.87;;
13435;SDS011;6790;49.520;8.504;2023-04-06T12:24:22;8.30;;;6.23;;
13435;SDS011;6790;49.520;8.504;2023-04-06T12:26:55;8.53;;;5.80;;
13435;SDS011;6790;49.520;8.504;2023-04-06T12:29:21;9.27;;;6.57;;
13435;SDS011;6790;49.520;8.504;2023-04-06T12:31:49;8.80;;;5.77;;
13435;SDS011;6790;49.520;8.504;2023-04-06T12:34:16;8.57;;;6.27;;
13435;SDS011;6790;49.520;8.504;2023-04-06T12:36:41;8.33;;;5.70;;
13435;SDS011;6790;49.520;8.504;2023-04-06T12:39:07;7.67;;;5.93;;
13435;SDS011;6790;49.520;8.504;2023-04-06T12:41:33;9.20;;;6.00;;
13435;SDS011;6790;49.520;8.504;2023-04-06T12:43:59;7.67;;;5.90;;
13435;SDS011;6790;49.520;8.504;2023-04-06T12:46:34;9.63;;;6.33;;
13435;SDS011;6790;49.520;8.504;2023-04-06T12:49:01;10.10;;;6.80;;
13435;SDS011;6790;49.520;8.504;2023-04-06T12:51:28;8.70;;;6.53;;
13435;SDS011;6790;49.520;8.504;2023-04-06T12:53:54;10.53;;;6.37;;
13435;SDS011;6790;49.520;8.504;2023-04-06T12:56:19;8.37;;;6.50;;
13435;SDS011;6790;49.520;8.504;2023-04-06T12:58:49;10.20;;;6.40;;
13435;SDS011;6790;49.520;8.504;2023-04-06T13:01:16;8.03;;;6.20;;
13435;SDS011;6790;49.520;8.504;2023-04-06T13:03:42;10.80;;;6.27;;
13435;SDS011;6790;49.520;8.504;2023-04-06T13:06:08;9.20;;;6.10;;
13435;SDS011;6790;49.520;8.504;2023-04-06T13:08:35;9.50;;;6.40;;
13435;SDS011;6790;49.520;8.504;2023-04-06T13:11:04;7.77;;;5.93;;
13435;SDS011;6790;49.520;8.504;2023-04-06T13:13:33;8.73;;;6.20;;
13435;SDS011;6790;49.520;8.504;2023-04-06T13:15:59;8.90;;;5.93;;
13435;SDS011;6790;49.520;8.504;2023-04-06T13:18:28;8.77;;;5.90;;
13435;SDS011;6790;49.520;8.504;2023-04-06T13:20:55;9.83;;;5.90;;
13435;SDS011;6790;49.520;8.504;2023-04-06T13:23:22;9.20;;;5.93;;
13435;SDS011;6790;49.520;8.504;2023-04-06T13:25:56;7.57;;;5.17;;
13435;SDS011;6790;49.520;8.504;2023-04-06T13:28:28;7.73;;;5.70;;
13435;SDS011;6790;49.520;8.504;2023-04-06T13:30:54;7.40;;;5.43;;
13435;SDS011;6790;49.520;8.504;2023-04-06T13:33:20;7.37;;;5.27;;
13435;SDS011;6790;49.520;8.504;2023-04-06T13:35:46;7.80;;;5.60;;
13435;SDS011;6790;49.520;8.504;2023-04-06T13:38:13;7.50;;;5.40;;
13435;SDS011;6790;49.520;8.504;2023-04-06T13:40:40;7.17;;;5.37;;
13435;SDS011;6790;49.520;8.504;2023-04-06T13:43:06;7.50;;;4.97;;
13435;SDS011;6790;49.520;8.504;2023-04-06T13:45:32;7.47;;;4.90;;
13435;SDS011;6790;49.520;8.504;2023-04-06T13:47:59;6.47;;;4.67;;
13435;SDS011;6790;49.520;8.504;2023-04-06T13:50:27;6.17;;;4.50;;
13435;SDS011;6790;49.520;8.504;2023-04-06T13:52:55;5.43;;;4.20;;
13435;SDS011;6790;49.520;8.504;2023-04-06T13:55:21;7.73;;;4.93;;
13435;SDS011;6790;49.520;8.504;2023-04-06T13:57:49;6.13;;;5.13;;
13435;SDS011;6790;49.520;8.504;2023-04-06T14:00:16;6.80;;;4.93;;
13435;SDS011;6790;49.520;8.504;2023-04-06T14:02:42;8.53;;;4.67;;
13435;SDS011;6790;49.520;8.504;2023-04-06T14:05:08;6.00;;;4.37;;
13435;SDS011;6790;49.520;8.504;2023-04-06T14:07:34;6.93;;;4.50;;
13435;SDS011;6790;49.520;8.504;2023-04-06T14:10:00;7.73;;;5.67;;
13435;SDS011;6790;49.520;8.504;2023-04-06T14:12:27;7.77;;;4.67;;
13435;SDS011;6790;49.520;8.504;2023-04-06T14:14:53;6.10;;;4.40;;
13435;SDS011;6790;49.520;8.504;2023-04-06T14:17:18;5.57;;;4.33;;
13435;SDS011;6790;49.520;8.504;2023-04-06T14:19:44;6.27;;;4.70;;
13435;SDS011;6790;49.520;8.504;2023-04-06T14:22:10;5.77;;;4.27;;
13435;SDS011;6790;49.520;8.504;2023-04-06T14:24:35;5.50;;;4.37;;
13435;SDS011;6790;49.520;8.504;2023-04-06T14:27:02;6.03;;;4.40;;
13435;SDS011;6790;49.520;8.504;2023-04-06T14:29:28;6.27;;;4.37;;
13435;SDS011;6790;49.520;8.504;2023-04-06T14:31:54;4.90;;;3.90;;
13435;SDS011;6790;49.520;8.504;2023-04-06T14:34:27;12.43;;;4.93;;
13435;SDS011;6790;49.520;8.504;2023-04-06T14:36:53;5.60;;;3.70;;
13435;SDS011;6790;49.520;8.504;2023-04-06T14:39:20;5.27;;;4.20;;
13435;SDS011;6790;49.520;8.504;2023-04-06T14:41:46;5.30;;;3.93;;
13435;SDS011;6790;49.520;8.504;2023-04-06T14:44:12;5.30;;;3.90;;
13435;SDS011;6790;49.520;8.504;2023-04-06T14:46:40;5.67;;;4.00;;
13435;SDS011;6790;49.520;8.504;2023-04-06T14:49:06;6.33;;;4.63;;
13435;SDS011;6790;49.520;8.504;2023-04-06T14:51:33;6.37;;;4.70;;
13435;SDS011;6790;49.520;8.504;2023-04-06T14:54:00;6.03;;;4.53;;
13435;SDS011;6790;49.520;8.504;2023-04-06T14:56:28;8.30;;;5.43;;
13435;SDS011;6790;49.520;8.504;2023-04-06T14:58:56;6.43;;;4.70;;
13435;SDS011;6790;49.520;8.504;2023-04-06T15:01:23;5.30;;;4.37;;
13435;SDS011;6790;49.520;8.504;2023-04-06T15:03:49;6.77;;;4.47;;
13435;SDS011;6790;49.520;8.504;2023-04-06T15:06:15;7.90;;;4.77;;